createdAt,value
2022-12-14T00:02:32.594Z,102760.38
2022-12-14T00:07:35.321Z,102758.78
2022-12-14T00:12:38.314Z,102786.53
2022-12-14T00:17:40.949Z,102785.59
2022-12-14T00:22:43.717Z,102803.06
2022-12-14T00:27:47.284Z,102805.72
2022-12-14T00:32:50.118Z,102834.06
2022-12-14T00:37:52.994Z,102851.19
2022-12-14T00:42:55.819Z,102862.66
2022-12-14T00:47:59.322Z,102865.56
2022-12-14T00:53:01.958Z,102872.16
2022-12-14T00:58:04.769Z,102877.50
2022-12-14T01:03:09.638Z,102857.22
2022-12-14T01:08:15.199Z,102907.56
2022-12-14T01:13:18.448Z,102912.97
2022-12-14T01:18:21.118Z,102917.44
2022-12-14T01:23:24.146Z,102920.09
2022-12-14T01:28:27.117Z,102916.97
2022-12-14T01:33:30.069Z,102924.75
2022-12-14T01:38:33.107Z,102959.66
2022-12-14T01:44:08.014Z,102959.06
2022-12-14T01:49:31.607Z,102986.81
2022-12-14T01:54:37.213Z,102940.19
2022-12-14T01:59:42.556Z,103008.50
2022-12-14T02:04:50.731Z,103004.81
2022-12-14T02:09:55.121Z,103002.31
2022-12-14T02:14:58.135Z,103012.56
2022-12-14T02:20:00.858Z,103035.13
2022-12-14T02:25:31.847Z,103040.16
2022-12-14T02:30:40.197Z,103041.25
2022-12-14T02:35:55.904Z,103065.81
2022-12-14T02:41:02.704Z,103076.09
2022-12-14T02:46:29.403Z,103063.47
2022-12-14T02:51:41.304Z,103086.28
2022-12-14T02:56:49.255Z,103092.00
2022-12-14T03:01:52.905Z,103086.16
2022-12-14T03:07:24.932Z,103108.22
2022-12-14T03:12:27.945Z,103119.34
2022-12-14T03:17:33.092Z,103128.34
2022-12-14T03:22:42.644Z,103145.88
2022-12-14T03:28:06.243Z,103162.63
2022-12-14T03:33:14.170Z,103161.59
2022-12-14T03:38:54.139Z,103181.28
2022-12-14T03:44:29.454Z,103173.09
2022-12-14T03:50:13.781Z,103193.78
2022-12-14T03:55:28.537Z,103203.72
2022-12-14T04:00:36.297Z,103213.03
2022-12-14T04:06:03.612Z,103227.28
2022-12-14T04:11:25.971Z,103221.50
2022-12-14T04:16:52.710Z,103230.91
2022-12-14T04:22:23.091Z,103251.41
2022-12-14T04:27:37.176Z,103247.16
2022-12-14T04:32:56.375Z,103257.31
2022-12-14T04:38:10.156Z,103260.97
2022-12-14T04:43:17.700Z,103268.03
2022-12-14T04:48:30.001Z,103261.78
2022-12-14T04:53:35.335Z,103270.66
2022-12-14T04:58:38.764Z,103280.44
2022-12-14T05:03:50.924Z,103279.34
2022-12-14T05:09:22.800Z,103284.50
2022-12-14T05:14:38.857Z,103302.19
2022-12-14T05:19:51.499Z,103326.44
2022-12-14T05:24:54.402Z,103346.97
2022-12-14T05:29:57.272Z,103357.53
2022-12-14T05:34:59.961Z,103352.19
2022-12-14T05:40:02.740Z,103312.25
2022-12-14T05:45:06.670Z,103347.25
2022-12-14T05:50:09.554Z,103376.38
2022-12-14T05:55:12.197Z,103381.06
2022-12-14T06:00:15.849Z,103390.75
2022-12-14T06:05:18.606Z,103387.50
2022-12-14T06:10:21.231Z,103392.91
2022-12-14T06:15:23.896Z,103409.22
2022-12-14T06:20:27.693Z,103411.03
2022-12-14T06:25:30.371Z,103405.63
2022-12-14T06:30:33.041Z,103415.34
2022-12-14T06:35:35.912Z,103426.25
2022-12-14T06:40:38.617Z,103435.97
2022-12-14T06:45:41.356Z,103437.28
2022-12-14T06:50:44.082Z,103443.66
2022-12-14T06:55:49.451Z,103438.56
2022-12-14T07:00:52.220Z,103442.50
2022-12-14T07:05:58.587Z,103439.13
2022-12-14T07:11:05.783Z,103453.25
2022-12-14T07:16:10.639Z,103454.03
2022-12-14T07:21:15.166Z,103452.03
2022-12-14T07:26:20.474Z,103460.16
2022-12-14T07:31:25.196Z,103441.41
2022-12-14T07:36:29.642Z,103454.22
2022-12-14T07:41:32.819Z,103461.25
2022-12-14T07:46:38.406Z,103465.91
2022-12-14T07:51:46.137Z,103453.09
2022-12-14T07:56:48.769Z,103479.78
2022-12-14T08:01:53.694Z,103486.63
2022-12-14T08:06:57.905Z,103498.13
2022-12-14T08:12:00.596Z,103518.13
2022-12-14T08:17:03.247Z,103496.75
2022-12-14T08:22:05.926Z,103528.19
2022-12-14T08:27:08.606Z,103520.88
2022-12-14T08:32:11.487Z,103507.16
2022-12-14T08:37:14.201Z,103558.72
2022-12-14T08:42:16.911Z,103564.59
2022-12-14T08:47:19.805Z,103566.38
2022-12-14T08:52:22.749Z,103581.41
2022-12-14T08:57:25.799Z,103574.88
2022-12-14T09:02:28.627Z,103588.44
2022-12-14T09:07:32.216Z,103582.50
2022-12-14T09:12:35.911Z,103607.88
2022-12-14T09:17:38.685Z,103549.91
2022-12-14T09:22:41.423Z,103623.78
2022-12-14T09:27:44.210Z,103581.66
2022-12-14T09:32:50.697Z,103649.84
2022-12-14T09:37:53.606Z,103648.31
2022-12-14T09:43:01.727Z,103652.13
2022-12-14T09:48:13.341Z,103653.72
2022-12-14T09:53:16.540Z,103652.25
2022-12-14T09:58:28.567Z,103687.47
2022-12-14T10:03:37.738Z,103682.91
2022-12-14T10:09:00.290Z,103688.25
2022-12-14T10:14:42.628Z,103701.13
2022-12-14T10:19:59.245Z,103714.00
2022-12-14T10:25:05.877Z,103709.78
2022-12-14T10:30:18.861Z,103715.69
2022-12-14T10:35:34.997Z,103734.06
2022-12-14T10:40:43.844Z,103721.91
2022-12-14T10:46:19.333Z,103740.22
2022-12-14T10:51:48.152Z,103749.84
2022-12-14T10:56:51.678Z,103759.75
2022-12-14T11:02:16.015Z,103770.31
2022-12-14T11:07:37.207Z,103770.78
2022-12-14T11:12:39.958Z,103785.03
2022-12-14T11:17:44.622Z,103784.06
2022-12-14T11:22:52.780Z,103785.56
2022-12-14T11:27:55.743Z,103780.75
2022-12-14T11:32:58.488Z,103789.84
2022-12-14T11:38:01.824Z,103779.66
2022-12-14T11:43:05.080Z,103809.13
2022-12-14T11:48:22.005Z,103819.91
2022-12-14T11:53:24.781Z,103814.66
2022-12-14T11:58:37.020Z,103807.00
2022-12-14T12:03:50.199Z,103836.78
2022-12-14T12:08:58.201Z,103819.97
2022-12-14T12:14:11.597Z,103851.56
2022-12-14T12:19:25.635Z,103851.56
2022-12-14T12:24:38.792Z,103865.13
2022-12-14T12:29:57.826Z,103862.53
2022-12-14T12:35:11.781Z,103845.22
2022-12-14T12:40:23.471Z,103868.34
2022-12-14T12:45:40.295Z,103850.06
2022-12-14T12:50:50.279Z,103852.97
2022-12-14T12:55:56.176Z,103856.88
2022-12-14T13:01:01.476Z,103845.22
2022-12-14T13:06:30.995Z,103867.69
2022-12-14T13:11:39.176Z,103874.56
2022-12-14T13:16:42.630Z,103874.81
2022-12-14T13:21:51.306Z,103879.88
2022-12-14T13:27:13.792Z,103884.44
2022-12-14T13:32:51.353Z,103885.06
2022-12-14T13:38:13.192Z,103832.44
2022-12-14T13:43:51.922Z,103894.34
2022-12-14T13:48:57.217Z,103888.44
2022-12-14T13:54:03.335Z,103910.97
2022-12-14T13:59:51.013Z,103909.34
2022-12-14T14:05:15.252Z,103901.81
2022-12-14T14:10:51.293Z,103899.97
2022-12-14T14:21:52.554Z,103883.09
2022-12-14T14:27:12.190Z,103899.34
2022-12-14T14:32:44.308Z,103896.22
2022-12-14T14:37:55.521Z,103900.50
2022-12-14T14:43:06.340Z,103903.81
2022-12-14T14:48:21.633Z,103881.22
2022-12-14T14:53:31.119Z,103880.13
2022-12-14T14:58:39.082Z,103886.69
2022-12-14T15:03:54.113Z,103906.91
2022-12-14T15:09:12.883Z,103920.81
2022-12-14T15:14:35.937Z,103909.25
2022-12-14T15:19:39.116Z,103894.59
2022-12-14T15:24:43.763Z,103925.63
2022-12-14T15:29:47.421Z,103933.44
2022-12-14T15:34:59.416Z,103930.84
2022-12-14T15:40:05.361Z,103942.63
2022-12-14T15:45:14.994Z,103935.63
2022-12-14T15:50:30.640Z,103939.72
2022-12-14T15:55:39.761Z,103942.72
2022-12-14T16:00:44.970Z,103926.19
2022-12-14T16:05:47.952Z,103941.56
2022-12-14T16:10:52.261Z,103955.31
2022-12-14T16:15:57.118Z,103933.22
2022-12-14T16:21:02.775Z,103928.81
2022-12-14T16:26:14.830Z,103934.44
2022-12-14T16:31:22.319Z,103919.25
2022-12-14T16:36:26.125Z,103892.19
2022-12-14T16:41:44.847Z,103923.59
2022-12-14T16:47:29.024Z,103913.78
2022-12-14T16:52:33.137Z,103940.53
2022-12-14T16:57:36.269Z,103949.50
2022-12-14T17:02:44.804Z,103949.16
2022-12-14T17:07:47.850Z,103929.69
2022-12-14T17:12:56.704Z,103952.00
2022-12-14T17:18:00.534Z,103929.41
2022-12-14T17:23:04.767Z,103961.63
2022-12-14T17:28:18.983Z,103972.66
2022-12-14T17:33:21.919Z,103962.25
2022-12-14T17:38:24.834Z,103964.19
2022-12-14T17:43:28.661Z,103977.53
2022-12-14T17:48:31.952Z,103971.53
2022-12-14T17:53:36.375Z,103990.00
2022-12-14T17:58:39.189Z,104011.00
2022-12-14T18:03:42.406Z,104008.72
2022-12-14T18:08:46.277Z,104020.09
2022-12-14T18:13:49.425Z,104013.88
2022-12-14T18:18:56.529Z,104022.03
2022-12-14T18:23:59.387Z,104032.38
2022-12-14T18:29:02.187Z,104045.06
2022-12-14T18:34:05.422Z,104038.31
2022-12-14T18:39:08.303Z,104031.75
2022-12-14T18:44:11.418Z,104023.97
2022-12-14T18:49:14.187Z,104013.19
2022-12-14T18:54:17.075Z,103979.81
2022-12-14T18:59:19.924Z,104022.56
2022-12-14T19:04:25.522Z,103982.53
2022-12-14T19:09:28.310Z,104015.94
2022-12-14T19:14:31.169Z,104022.25
2022-12-14T19:19:39.485Z,104017.78
2022-12-14T19:24:52.161Z,103968.84
2022-12-14T19:29:55.399Z,104025.94
2022-12-14T19:34:58.238Z,104022.28
2022-12-14T19:40:02.839Z,104033.81
2022-12-14T19:45:06.935Z,104049.75
2022-12-14T19:50:11.414Z,104055.75
2022-12-14T19:55:14.302Z,104099.06
2022-12-14T20:00:17.260Z,104090.16
2022-12-14T20:05:22.018Z,104081.19
2022-12-14T20:10:25.005Z,104030.97
2022-12-14T20:15:27.938Z,104008.69
2022-12-14T20:20:32.458Z,103976.09
2022-12-14T20:25:35.362Z,103976.75
2022-12-14T20:30:44.335Z,103975.41
2022-12-14T20:35:51.961Z,103992.25
2022-12-14T20:40:54.931Z,103975.22
2022-12-14T20:45:57.943Z,103972.84
2022-12-14T20:51:04.065Z,103973.78
2022-12-14T20:56:09.215Z,103973.84
2022-12-14T21:01:15.731Z,103986.81
2022-12-14T21:06:20.758Z,104009.53
2022-12-14T21:11:42.339Z,103958.75
2022-12-14T21:16:45.193Z,104042.63
2022-12-14T21:21:53.297Z,104031.75
2022-12-14T21:26:56.909Z,104034.50
2022-12-14T21:31:59.872Z,104030.66
2022-12-14T21:37:02.663Z,104028.63
2022-12-14T21:42:13.287Z,104030.91
2022-12-14T21:47:17.299Z,104044.53
2022-12-14T21:52:23.049Z,104045.13
2022-12-14T21:57:49.973Z,104042.00
2022-12-14T22:02:53.550Z,104053.84
2022-12-14T22:07:56.379Z,104016.91
2022-12-14T22:12:59.070Z,104062.09
2022-12-14T22:18:01.780Z,104046.25
2022-12-14T22:23:04.683Z,104017.75
2022-12-14T22:28:07.396Z,104019.47
2022-12-14T22:33:10.427Z,104018.19
2022-12-14T22:38:13.090Z,104031.47
2022-12-14T22:43:15.770Z,104038.81
2022-12-14T22:48:18.560Z,104016.84
2022-12-14T22:53:21.328Z,104012.44
2022-12-14T22:58:24.891Z,104016.41
2022-12-14T23:03:28.002Z,104036.25
2022-12-14T23:08:31.150Z,104027.75
2022-12-14T23:13:52.261Z,104019.94
2022-12-14T23:19:13.490Z,104041.00
2022-12-14T23:24:34.742Z,104059.00
2022-12-14T23:29:56.553Z,104060.00
2022-12-14T23:35:17.827Z,104062.88
2022-12-14T23:40:38.743Z,104041.22
2022-12-14T23:46:01.987Z,104020.69
2022-12-14T23:51:23.576Z,104041.09
2022-12-14T23:56:45.005Z,104030.50
